createdAt,value
2018-11-27T00:00:50.137Z,122.20
2018-11-27T00:03:18.079Z,128.27
2018-11-27T00:05:46.027Z,127.07
2018-11-27T00:08:13.841Z,126.03
2018-11-27T00:10:41.477Z,128.70
2018-11-27T00:13:11.376Z,125.80
2018-11-27T00:15:41.037Z,130.80
2018-11-27T00:18:10.119Z,125.00
2018-11-27T00:20:40.473Z,124.60
2018-11-27T00:23:08.703Z,121.47
2018-11-27T00:25:37.345Z,126.43
2018-11-27T00:28:06.054Z,126.07
2018-11-27T00:30:34.269Z,123.37
2018-11-27T00:33:01.917Z,126.57
2018-11-27T00:35:29.680Z,125.13
2018-11-27T00:37:59.421Z,125.10
2018-11-27T00:40:27.233Z,129.70
2018-11-27T00:42:54.953Z,127.90
2018-11-27T00:45:22.789Z,131.83
2018-11-27T00:47:50.907Z,127.97
2018-11-27T00:50:21.500Z,125.17
2018-11-27T00:52:48.989Z,125.47
2018-11-27T00:55:17.489Z,130.20
2018-11-27T00:57:46.310Z,127.43
2018-11-27T01:00:14.894Z,129.37
2018-11-27T01:02:43.620Z,128.33
2018-11-27T01:05:13.281Z,129.97
2018-11-27T01:07:40.962Z,124.50
2018-11-27T01:10:11.173Z,128.43
2018-11-27T01:12:38.745Z,126.37
2018-11-27T01:15:07.590Z,129.43
2018-11-27T01:17:35.272Z,132.43
2018-11-27T01:20:02.846Z,133.70
2018-11-27T01:22:30.382Z,128.77
2018-11-27T01:24:57.908Z,129.40
2018-11-27T01:27:25.473Z,135.00
2018-11-27T01:29:53.068Z,127.13
2018-11-27T01:32:20.684Z,132.73
2018-11-27T01:34:48.414Z,134.20
2018-11-27T01:37:15.915Z,128.60
2018-11-27T01:39:43.583Z,135.30
2018-11-27T01:42:12.080Z,128.57
2018-11-27T01:44:39.703Z,134.17
2018-11-27T01:47:07.201Z,130.20
2018-11-27T01:49:34.918Z,134.00
2018-11-27T01:52:02.418Z,132.80
2018-11-27T01:54:29.992Z,124.90
2018-11-27T01:56:57.561Z,132.17
2018-11-27T01:59:25.076Z,129.67
2018-11-27T02:01:52.641Z,127.20
2018-11-27T02:04:20.183Z,135.30
2018-11-27T02:06:47.691Z,135.40
2018-11-27T02:09:15.251Z,132.87
2018-11-27T02:11:42.783Z,135.03
2018-11-27T02:14:10.336Z,134.33
2018-11-27T02:16:37.902Z,131.37
2018-11-27T02:19:05.523Z,129.13
2018-11-27T02:21:33.044Z,136.37
2018-11-27T02:24:00.586Z,138.80
2018-11-27T02:26:28.023Z,140.60
2018-11-27T02:28:55.661Z,136.50
2018-11-27T02:31:23.168Z,131.27
2018-11-27T02:33:50.632Z,136.20
2018-11-27T02:36:18.120Z,128.97
2018-11-27T02:38:45.593Z,133.53
2018-11-27T02:41:13.105Z,128.60
2018-11-27T02:43:40.569Z,131.03
2018-11-27T02:46:08.047Z,134.13
2018-11-27T02:48:35.729Z,130.37
2018-11-27T02:51:03.214Z,126.50
2018-11-27T02:53:30.783Z,126.43
2018-11-27T02:55:58.424Z,125.47
2018-11-27T02:58:26.072Z,128.97
2018-11-27T03:00:53.639Z,126.40
2018-11-27T03:03:21.237Z,127.80
2018-11-27T03:05:48.786Z,127.73
2018-11-27T03:08:16.333Z,132.40
2018-11-27T03:10:43.850Z,122.90
2018-11-27T03:13:11.419Z,126.57
2018-11-27T03:15:38.947Z,129.97
2018-11-27T03:18:06.548Z,127.17
2018-11-27T03:20:34.037Z,125.73
2018-11-27T03:23:01.556Z,127.30
2018-11-27T03:25:29.262Z,128.60
2018-11-27T03:27:56.911Z,121.10
2018-11-27T03:30:25.506Z,124.90
2018-11-27T03:32:54.194Z,125.60
2018-11-27T03:35:22.718Z,131.93
2018-11-27T03:37:50.556Z,127.53
2018-11-27T03:40:22.411Z,127.70
2018-11-27T03:42:50.482Z,127.80
2018-11-27T03:45:18.803Z,126.93
2018-11-27T03:47:46.362Z,130.30
2018-11-27T03:50:16.024Z,122.00
2018-11-27T03:52:43.727Z,124.90
2018-11-27T03:55:11.834Z,125.87
2018-11-27T03:57:39.542Z,126.67
2018-11-27T04:00:38.145Z,122.00
2018-11-27T04:03:08.844Z,129.63
2018-11-27T04:05:36.655Z,126.17
2018-11-27T04:08:05.201Z,141.60
2018-11-27T04:10:32.830Z,126.73
2018-11-27T04:13:00.392Z,124.20
2018-11-27T04:15:27.964Z,127.67
2018-11-27T04:17:55.544Z,122.47
2018-11-27T04:20:23.997Z,126.27
2018-11-27T04:22:51.567Z,137.77
2018-11-27T04:25:19.143Z,137.20
2018-11-27T04:27:47.391Z,130.33
2018-11-27T04:30:17.578Z,122.93
2018-11-27T04:32:45.164Z,123.27
2018-11-27T04:35:14.615Z,121.17
2018-11-27T04:37:42.311Z,132.47
2018-11-27T04:40:11.198Z,124.00
2018-11-27T04:42:38.705Z,131.77
2018-11-27T04:45:09.253Z,125.53
2018-11-27T04:47:36.839Z,126.20
2018-11-27T04:50:05.920Z,125.50
2018-11-27T04:52:33.612Z,123.07
2018-11-27T04:55:01.147Z,125.77
2018-11-27T04:57:28.630Z,126.67
2018-11-27T04:59:56.223Z,132.13
2018-11-27T05:02:23.777Z,126.57
2018-11-27T05:04:51.366Z,128.20
2018-11-27T05:07:18.975Z,125.13
2018-11-27T05:09:46.443Z,123.23
2018-11-27T05:12:13.908Z,123.87
2018-11-27T05:14:41.412Z,124.57
2018-11-27T05:17:08.940Z,123.30
2018-11-27T05:19:36.427Z,128.63
2018-11-27T05:22:04.031Z,127.30
2018-11-27T05:24:31.518Z,128.37
2018-11-27T05:26:59.018Z,123.03
2018-11-27T05:29:26.456Z,128.57
2018-11-27T05:31:53.917Z,129.73
2018-11-27T05:34:21.471Z,130.57
2018-11-27T05:36:48.949Z,126.13
2018-11-27T05:39:16.463Z,125.73
2018-11-27T05:41:43.990Z,134.57
2018-11-27T05:44:11.591Z,127.47
2018-11-27T05:46:39.269Z,125.97
2018-11-27T05:49:06.885Z,129.30
2018-11-27T05:51:34.348Z,130.77
2018-11-27T05:54:01.813Z,130.03
2018-11-27T05:56:29.360Z,128.97
2018-11-27T05:58:56.939Z,130.47
2018-11-27T06:01:24.632Z,136.30
2018-11-27T06:03:52.110Z,131.52
2018-11-27T06:06:19.700Z,124.57
2018-11-27T06:08:48.028Z,131.20
2018-11-27T06:11:15.611Z,126.10
2018-11-27T06:13:44.009Z,133.70
2018-11-27T06:16:11.527Z,125.87
2018-11-27T06:18:39.042Z,130.37
2018-11-27T06:21:07.855Z,130.57
2018-11-27T06:23:35.579Z,139.20
2018-11-27T06:26:03.383Z,127.93
2018-11-27T06:28:31.212Z,135.00
2018-11-27T06:30:58.957Z,134.50
2018-11-27T06:33:26.490Z,130.90
2018-11-27T06:35:54.205Z,129.00
2018-11-27T06:38:21.670Z,129.97
2018-11-27T06:40:49.258Z,138.90
2018-11-27T06:43:16.880Z,133.03
2018-11-27T06:45:44.564Z,127.90
2018-11-27T06:48:12.164Z,128.97
2018-11-27T06:50:39.900Z,132.07
2018-11-27T06:53:07.769Z,131.57
2018-11-27T06:55:35.535Z,126.47
2018-11-27T06:58:03.657Z,127.87
2018-11-27T07:00:31.258Z,130.57
2018-11-27T07:02:59.266Z,129.07
2018-11-27T07:05:26.912Z,138.80
2018-11-27T07:07:54.445Z,132.00
2018-11-27T07:10:30.088Z,133.27
2018-11-27T07:13:03.365Z,135.33
2018-11-27T07:15:31.177Z,136.67
2018-11-27T07:17:58.708Z,154.53
2018-11-27T07:20:26.265Z,131.07
2018-11-27T07:22:54.162Z,140.17
2018-11-27T07:25:21.721Z,137.57
2018-11-27T07:27:49.826Z,132.73
2018-11-27T07:30:18.531Z,135.63
2018-11-27T07:32:46.142Z,135.33
2018-11-27T07:35:14.730Z,132.23
2018-11-27T07:37:42.357Z,132.97
2018-11-27T07:40:12.231Z,135.63
2018-11-27T07:42:39.846Z,138.57
2018-11-27T07:46:11.879Z,136.00
2018-11-27T07:48:39.548Z,132.67
2018-11-27T07:51:07.921Z,129.60
2018-11-27T07:53:35.430Z,125.30
2018-11-27T07:56:03.297Z,143.27
2018-11-27T07:58:30.796Z,130.60
2018-11-27T08:00:58.396Z,132.60
2018-11-27T08:03:26.060Z,138.07
2018-11-27T08:05:53.615Z,142.20
2018-11-27T08:08:21.157Z,139.03
2018-11-27T08:10:50.046Z,138.13
2018-11-27T08:13:17.551Z,136.57
2018-11-27T08:15:45.085Z,146.10
2018-11-27T08:18:12.706Z,132.23
2018-11-27T08:20:40.312Z,140.23
2018-11-27T08:23:09.052Z,141.93
2018-11-27T08:25:36.662Z,145.87
2018-11-27T08:28:05.607Z,141.83
2018-11-27T08:30:33.259Z,135.67
2018-11-27T08:33:00.868Z,141.50
2018-11-27T08:35:29.271Z,149.57
2018-11-27T08:37:57.793Z,143.77
2018-11-27T08:40:26.503Z,151.50
2018-11-27T08:42:54.268Z,155.10
2018-11-27T08:45:22.790Z,140.10
2018-11-27T08:47:51.117Z,140.93
2018-11-27T08:50:20.800Z,144.20
2018-11-27T08:52:50.045Z,144.37
2018-11-27T08:55:19.331Z,145.37
2018-11-27T08:57:47.289Z,146.00
2018-11-27T09:00:16.948Z,147.60
2018-11-27T09:02:45.536Z,136.87
2018-11-27T09:05:12.783Z,143.43
2018-11-27T09:07:41.105Z,143.40
2018-11-27T09:10:15.475Z,145.70
2018-11-27T09:12:43.160Z,144.50
2018-11-27T09:15:13.790Z,143.23
2018-11-27T09:17:43.758Z,145.33
2018-11-27T09:20:11.898Z,144.87
2018-11-27T09:22:39.386Z,143.10
2018-11-27T09:25:11.320Z,155.03
2018-11-27T09:27:38.942Z,145.37
2018-11-27T09:30:14.887Z,152.10
2018-11-27T09:32:42.716Z,148.60
2018-11-27T09:35:10.629Z,143.77
2018-11-27T09:37:38.485Z,144.00
2018-11-27T09:40:13.632Z,146.70
2018-11-27T09:42:41.254Z,158.83
2018-11-27T09:45:12.063Z,145.93
2018-11-27T09:47:39.972Z,148.27
2018-11-27T09:50:10.215Z,145.33
2018-11-27T09:52:37.882Z,145.07
2018-11-27T09:55:10.973Z,154.03
2018-11-27T09:57:38.460Z,154.23
2018-11-27T10:00:14.895Z,150.23
2018-11-27T10:02:42.379Z,145.57
2018-11-27T10:05:10.676Z,148.27
2018-11-27T10:07:38.394Z,146.97
2018-11-27T10:10:07.989Z,149.13
2018-11-27T10:12:35.586Z,141.33
2018-11-27T10:15:03.837Z,143.57
2018-11-27T10:17:31.382Z,143.73
2018-11-27T10:19:59.500Z,140.47
2018-11-27T10:22:27.477Z,142.17
2018-11-27T10:24:54.935Z,143.03
2018-11-27T10:27:22.404Z,137.53
2018-11-27T10:29:50.061Z,143.30
2018-11-27T10:32:17.555Z,144.53
2018-11-27T10:34:45.288Z,141.10
2018-11-27T10:37:12.765Z,143.43
2018-11-27T10:39:40.872Z,140.30
2018-11-27T10:42:08.475Z,135.90
2018-11-27T10:44:35.924Z,137.70
2018-11-27T10:47:03.694Z,136.70
2018-11-27T10:49:31.306Z,132.97
2018-11-27T10:51:58.781Z,134.80
2018-11-27T10:54:26.456Z,133.07
2018-11-27T10:56:53.968Z,134.60
2018-11-27T10:59:21.725Z,129.87
2018-11-27T11:01:52.263Z,126.60
2018-11-27T11:04:19.870Z,132.67
2018-11-27T11:06:47.439Z,128.57
2018-11-27T11:09:15.068Z,132.37
2018-11-27T11:11:42.626Z,133.80
2018-11-27T11:14:10.107Z,127.83
2018-11-27T11:16:37.948Z,133.83
2018-11-27T11:19:06.802Z,128.40
2018-11-27T11:21:34.366Z,127.23
2018-11-27T11:24:01.855Z,135.27
2018-11-27T11:26:29.326Z,132.30
2018-11-27T11:28:57.051Z,127.90
2018-11-27T11:31:24.591Z,124.33
2018-11-27T11:33:52.193Z,127.10
2018-11-27T11:36:19.860Z,123.87
2018-11-27T11:38:47.298Z,128.63
2018-11-27T11:41:14.854Z,125.87
2018-11-27T11:43:42.323Z,129.57
2018-11-27T11:46:09.739Z,132.87
2018-11-27T11:48:37.930Z,128.37
2018-11-27T11:51:05.979Z,127.80
2018-11-27T11:53:33.554Z,128.83
2018-11-27T11:56:01.055Z,122.90
2018-11-27T11:58:28.554Z,123.47
2018-11-27T12:00:57.040Z,125.47
2018-11-27T12:03:24.546Z,122.97
2018-11-27T12:05:52.258Z,123.47
2018-11-27T12:08:22.909Z,125.50
2018-11-27T12:10:50.524Z,125.63
2018-11-27T12:13:17.996Z,120.90
2018-11-27T12:15:45.478Z,125.03
2018-11-27T12:18:13.170Z,123.10
2018-11-27T12:20:40.820Z,120.47
2018-11-27T12:23:09.909Z,125.93
2018-11-27T12:25:38.047Z,123.03
2018-11-27T12:28:08.060Z,122.00
2018-11-27T12:30:35.624Z,129.10
2018-11-27T12:33:03.158Z,123.80
2018-11-27T12:35:30.652Z,123.80
2018-11-27T12:37:58.143Z,125.00
2018-11-27T12:40:27.050Z,124.97
2018-11-27T12:42:55.130Z,124.07
2018-11-27T12:45:32.316Z,123.20
2018-11-27T12:48:01.567Z,121.40
2018-11-27T12:50:38.710Z,122.57
2018-11-27T12:53:07.741Z,124.80
2018-11-27T12:55:36.124Z,121.63
2018-11-27T12:58:03.790Z,124.30
2018-11-27T13:00:31.254Z,119.67
2018-11-27T13:02:58.773Z,129.10
2018-11-27T13:05:27.572Z,126.43
2018-11-27T13:07:57.938Z,123.37
2018-11-27T13:10:25.385Z,125.87
2018-11-27T13:12:53.635Z,127.53
2018-11-27T13:15:21.332Z,129.67
2018-11-27T13:17:50.107Z,127.67
2018-11-27T13:20:18.463Z,123.47
2018-11-27T13:22:46.338Z,123.70
2018-11-27T13:25:15.881Z,126.40
2018-11-27T13:27:43.546Z,121.47
2018-11-27T13:30:14.567Z,121.17
2018-11-27T13:32:42.322Z,124.83
2018-11-27T13:35:11.282Z,124.30
2018-11-27T13:37:39.032Z,128.63
2018-11-27T13:40:08.199Z,125.37
2018-11-27T13:42:35.739Z,122.50
2018-11-27T13:45:03.310Z,125.90
2018-11-27T13:47:30.826Z,120.37
2018-11-27T13:49:58.341Z,126.57
2018-11-27T13:52:25.776Z,116.50
2018-11-27T13:54:53.213Z,124.80
2018-11-27T13:57:20.762Z,117.07
2018-11-27T13:59:48.331Z,124.80
2018-11-27T14:02:15.984Z,122.27
2018-11-27T14:04:43.433Z,127.47
2018-11-27T14:07:10.940Z,122.30
2018-11-27T14:09:40.124Z,118.77
2018-11-27T14:12:07.876Z,126.87
2018-11-27T14:14:35.384Z,121.23
2018-11-27T14:17:03.032Z,123.10
2018-11-27T14:19:30.474Z,121.77
2018-11-27T14:21:58.123Z,126.10
2018-11-27T14:24:27.942Z,124.73
2018-11-27T14:26:55.422Z,121.40
2018-11-27T14:29:23.082Z,122.90
2018-11-27T14:31:50.578Z,127.83
2018-11-27T14:34:18.078Z,127.27
2018-11-27T14:36:45.587Z,134.07
2018-11-27T14:39:13.019Z,125.80
2018-11-27T14:41:40.444Z,125.17
2018-11-27T14:44:07.984Z,129.70
2018-11-27T14:46:35.410Z,135.60
2018-11-27T14:49:02.925Z,129.07
2018-11-27T14:51:30.423Z,127.97
2018-11-27T14:53:57.879Z,126.37
2018-11-27T14:56:25.343Z,124.67
2018-11-27T14:58:52.912Z,123.90
2018-11-27T15:01:20.350Z,128.83
2018-11-27T15:03:47.919Z,127.03
2018-11-27T15:06:15.403Z,124.87
2018-11-27T15:08:42.938Z,123.90
2018-11-27T15:11:12.741Z,126.27
2018-11-27T15:13:37.923Z,123.40
2018-11-27T15:16:05.492Z,124.27
2018-11-27T15:18:32.897Z,126.40
2018-11-27T15:21:00.353Z,123.77
2018-11-27T15:23:27.760Z,122.13
2018-11-27T15:25:55.300Z,126.37
2018-11-27T15:28:22.742Z,126.03
2018-11-27T15:30:50.329Z,124.77
2018-11-27T15:33:18.792Z,125.53
2018-11-27T15:35:45.326Z,130.07
2018-11-27T15:38:12.802Z,125.93
2018-11-27T15:40:40.405Z,123.73
2018-11-27T15:43:08.066Z,127.53
2018-11-27T15:45:36.260Z,129.17
2018-11-27T15:48:05.852Z,127.63
2018-11-27T15:50:33.328Z,126.83
2018-11-27T15:53:00.924Z,125.60
2018-11-27T15:57:55.564Z,129.83
2018-11-27T16:00:22.958Z,133.20
2018-11-27T16:02:50.651Z,133.03
2018-11-27T16:05:18.180Z,134.80
2018-11-27T16:07:45.740Z,132.97
2018-11-27T16:10:14.308Z,137.37
2018-11-27T16:12:41.912Z,133.70
2018-11-27T16:15:15.683Z,130.40
2018-11-27T16:17:43.483Z,126.70
2018-11-27T16:20:19.575Z,134.70
2018-11-27T16:22:48.250Z,129.57
2018-11-27T16:25:17.180Z,138.10
2018-11-27T16:27:44.780Z,134.07
2018-11-27T16:30:18.063Z,130.97
2018-11-27T16:32:45.614Z,130.90
2018-11-27T16:35:13.673Z,126.90
2018-11-27T16:37:41.956Z,129.20
2018-11-27T16:40:11.145Z,128.90
2018-11-27T16:42:38.723Z,124.07
2018-11-27T16:45:10.208Z,124.87
2018-11-27T16:47:37.759Z,129.30
2018-11-27T16:50:06.088Z,128.20
2018-11-27T16:52:33.626Z,130.77
2018-11-27T16:55:01.107Z,129.50
2018-11-27T16:57:28.709Z,126.10
2018-11-27T16:59:56.222Z,127.60
2018-11-27T17:02:23.764Z,126.00
2018-11-27T17:04:51.320Z,128.40
2018-11-27T17:07:18.990Z,133.30
2018-11-27T17:09:46.604Z,133.23
2018-11-27T17:12:14.879Z,127.33
2018-11-27T17:14:42.375Z,122.13
2018-11-27T17:17:09.900Z,134.10
2018-11-27T17:19:38.076Z,127.43
2018-11-27T17:22:07.118Z,126.13
2018-11-27T17:24:34.472Z,122.17
2018-11-27T17:27:02.669Z,130.10
2018-11-27T17:29:30.152Z,124.00
2018-11-27T17:31:57.620Z,128.50
2018-11-27T17:34:25.216Z,136.00
2018-11-27T17:36:52.716Z,125.05
2018-11-27T17:39:20.194Z,124.37
2018-11-27T17:41:48.463Z,123.23
2018-11-27T17:44:16.309Z,124.07
2018-11-27T17:46:43.936Z,131.67
2018-11-27T17:49:11.561Z,120.27
2018-11-27T17:51:39.124Z,127.57
2018-11-27T17:54:07.243Z,128.87
2018-11-27T17:56:34.721Z,125.93
2018-11-27T17:59:02.199Z,130.43
2018-11-27T18:01:29.969Z,127.80
2018-11-27T18:03:57.622Z,125.43
2018-11-27T18:06:25.222Z,124.53
2018-11-27T18:08:53.286Z,127.17
2018-11-27T18:11:21.016Z,125.77
2018-11-27T18:13:48.533Z,136.52
2018-11-27T18:16:16.137Z,122.37
2018-11-27T18:18:43.706Z,123.58
2018-11-27T18:21:11.253Z,122.67
2018-11-27T18:23:38.890Z,120.60
2018-11-27T18:26:06.451Z,125.03
2018-11-27T18:28:34.045Z,125.77
2018-11-27T18:31:01.781Z,126.07
2018-11-27T18:33:32.408Z,125.70
2018-11-27T18:36:00.537Z,134.50
2018-11-27T18:38:29.311Z,129.97
2018-11-27T18:40:58.582Z,122.90
2018-11-27T18:43:27.981Z,127.37
2018-11-27T18:45:56.957Z,121.87
2018-11-27T18:48:25.605Z,125.60
2018-11-27T18:50:54.529Z,125.00
2018-11-27T18:53:22.599Z,122.10
2018-11-27T18:55:50.115Z,125.07
2018-11-27T18:58:19.551Z,123.77
2018-11-27T19:00:47.888Z,125.40
2018-11-27T19:03:16.612Z,130.40
2018-11-27T19:05:45.430Z,128.42
2018-11-27T19:08:13.139Z,127.15
2018-11-27T19:10:40.758Z,130.22
2018-11-27T19:13:08.951Z,127.40
2018-11-27T19:15:39.695Z,125.63
2018-11-27T19:18:14.416Z,128.50
2018-11-27T19:20:41.921Z,126.85
2018-11-27T19:23:09.602Z,128.87
2018-11-27T19:25:37.173Z,129.30
2018-11-27T19:28:05.057Z,123.17
2018-11-27T19:30:32.784Z,129.40
2018-11-27T19:33:00.933Z,131.93
2018-11-27T19:35:28.661Z,134.40
2018-11-27T19:37:56.422Z,129.20
2018-11-27T19:40:24.105Z,126.60
2018-11-27T19:42:51.660Z,127.17
2018-11-27T19:45:22.690Z,128.60
2018-11-27T19:47:50.800Z,126.75
2018-11-27T19:50:19.373Z,127.40
2018-11-27T19:52:48.713Z,131.17
2018-11-27T19:55:17.081Z,135.20
2018-11-27T19:57:44.881Z,127.53
2018-11-27T20:00:22.460Z,129.30
2018-11-27T20:02:51.003Z,129.20
2018-11-27T20:05:25.479Z,135.70
2018-11-27T20:07:53.048Z,138.37
2018-11-27T20:10:20.855Z,135.50
2018-11-27T20:12:49.577Z,152.53
2018-11-27T20:15:19.593Z,141.90
2018-11-27T20:17:47.958Z,157.07
2018-11-27T20:20:16.559Z,146.37
2018-11-27T20:22:44.292Z,156.17
2018-11-27T20:25:13.393Z,150.68
2018-11-27T20:27:41.000Z,144.87
2018-11-27T20:30:12.504Z,150.22
2018-11-27T20:32:40.790Z,145.73
2018-11-27T20:35:10.336Z,146.68
2018-11-27T20:37:37.919Z,144.43
2018-11-27T20:40:09.337Z,164.35
2018-11-27T20:42:36.901Z,182.65
2018-11-27T20:45:06.505Z,170.20
2018-11-27T20:47:34.127Z,145.85
2018-11-27T20:50:01.845Z,145.07
2018-11-27T20:52:29.401Z,149.37
2018-11-27T20:54:56.918Z,146.15
2018-11-27T20:57:24.468Z,138.62
2018-11-27T20:59:52.898Z,136.67
2018-11-27T21:02:20.425Z,144.00
2018-11-27T21:04:48.004Z,142.60
2018-11-27T21:07:16.698Z,143.50
2018-11-27T21:09:44.354Z,138.90
2018-11-27T21:12:11.993Z,131.18
2018-11-27T21:14:39.675Z,129.68
2018-11-27T21:17:07.214Z,132.43
2018-11-27T21:19:34.776Z,132.10
2018-11-27T21:22:02.763Z,136.80
2018-11-27T21:24:30.257Z,132.97
2018-11-27T21:26:57.985Z,129.15
2018-11-27T21:29:25.665Z,141.23
2018-11-27T21:31:53.187Z,154.53
2018-11-27T21:34:20.706Z,149.75
2018-11-27T21:36:48.325Z,144.80
2018-11-27T21:39:16.096Z,132.10
2018-11-27T21:41:45.006Z,137.70
2018-11-27T21:44:12.544Z,134.27
2018-11-27T21:46:40.141Z,128.85
2018-11-27T21:49:07.688Z,129.50
2018-11-27T21:51:35.193Z,134.60
2018-11-27T21:54:03.559Z,127.22
2018-11-27T21:56:31.248Z,135.93
2018-11-27T21:58:59.943Z,127.02
2018-11-27T22:01:27.503Z,125.65
2018-11-27T22:03:56.151Z,137.92
2018-11-27T22:06:23.834Z,130.32
2018-11-27T22:08:51.898Z,136.95
2018-11-27T22:11:19.598Z,131.57
2018-11-27T22:13:47.554Z,130.50
2018-11-27T22:16:15.129Z,138.97
2018-11-27T22:18:42.892Z,131.63
2018-11-27T22:21:10.435Z,129.20
2018-11-27T22:23:38.189Z,132.00
2018-11-27T22:26:05.759Z,128.82
2018-11-27T22:28:33.377Z,128.78
2018-11-27T22:31:00.950Z,130.07
2018-11-27T22:33:28.592Z,133.00
2018-11-27T22:35:56.612Z,130.18
2018-11-27T22:38:24.137Z,129.07
2018-11-27T22:40:53.574Z,139.22
2018-11-27T22:43:21.128Z,128.97
2018-11-27T22:45:48.795Z,130.65
2018-11-27T22:48:16.406Z,131.90
2018-11-27T22:50:44.163Z,129.40
2018-11-27T22:53:11.931Z,138.30
2018-11-27T22:55:39.861Z,134.32
2018-11-27T22:58:07.825Z,133.78
2018-11-27T23:00:41.323Z,141.22
2018-11-27T23:03:08.900Z,131.90
2018-11-27T23:05:36.479Z,138.27
2018-11-27T23:08:04.510Z,137.85
2018-11-27T23:10:34.890Z,139.68
2018-11-27T23:13:03.056Z,130.55
2018-11-27T23:15:30.769Z,135.20
2018-11-27T23:17:58.395Z,128.10
2018-11-27T23:20:26.167Z,139.10
2018-11-27T23:22:54.025Z,130.65
2018-11-27T23:25:21.707Z,134.97
2018-11-27T23:27:50.260Z,129.03
2018-11-27T23:30:19.798Z,129.68
2018-11-27T23:32:48.097Z,129.38
2018-11-27T23:35:16.471Z,131.47
2018-11-27T23:37:44.060Z,126.07
2018-11-27T23:40:12.951Z,131.07
2018-11-27T23:42:42.024Z,132.10
2018-11-27T23:45:12.643Z,130.30
2018-11-27T23:47:40.891Z,129.90
2018-11-27T23:50:10.561Z,134.60
2018-11-27T23:52:38.284Z,132.20
2018-11-27T23:55:07.874Z,135.78
2018-11-27T23:57:35.870Z,134.65
